sensor_id;sensor_type;location;lat;lon;timestamp;P1;durP1;ratioP1;P2;durP2;ratioP2
2147;SDS011;1080;48.724;9.104;2022-11-20T00:02:42;4.13;;;2.60;;
2147;SDS011;1080;48.724;9.104;2022-11-20T00:05:09;3.43;;;2.17;;
2147;SDS011;1080;48.724;9.104;2022-11-20T00:07:36;4.70;;;2.90;;
2147;SDS011;1080;48.724;9.104;2022-11-20T00:10:03;3.17;;;2.73;;
2147;SDS011;1080;48.724;9.104;2022-11-20T00:12:30;3.53;;;2.50;;
2147;SDS011;1080;48.724;9.104;2022-11-20T00:14:58;3.00;;;2.50;;
2147;SDS011;1080;48.724;9.104;2022-11-20T00:17:25;4.83;;;3.00;;
2147;SDS011;1080;48.724;9.104;2022-11-20T00:19:53;3.13;;;2.33;;
2147;SDS011;1080;48.724;9.104;2022-11-20T00:22:20;8.67;;;3.40;;
2147;SDS011;1080;48.724;9.104;2022-11-20T00:24:48;3.43;;;2.67;;
2147;SDS011;1080;48.724;9.104;2022-11-20T00:27:15;3.90;;;3.03;;
2147;SDS011;1080;48.724;9.104;2022-11-20T00:29:42;5.47;;;3.00;;
2147;SDS011;1080;48.724;9.104;2022-11-20T00:32:09;2.63;;;2.20;;
2147;SDS011;1080;48.724;9.104;2022-11-20T00:34:36;3.70;;;2.53;;
2147;SDS011;1080;48.724;9.104;2022-11-20T00:37:04;5.80;;;2.83;;
2147;SDS011;1080;48.724;9.104;2022-11-20T00:39:31;5.37;;;2.87;;
2147;SDS011;1080;48.724;9.104;2022-11-20T00:41:59;7.90;;;3.03;;
2147;SDS011;1080;48.724;9.104;2022-11-20T00:44:26;4.77;;;2.80;;
2147;SDS011;1080;48.724;9.104;2022-11-20T00:46:53;4.07;;;2.80;;
2147;SDS011;1080;48.724;9.104;2022-11-20T00:49:20;3.30;;;2.10;;
2147;SDS011;1080;48.724;9.104;2022-11-20T00:51:47;4.57;;;3.13;;
2147;SDS011;1080;48.724;9.104;2022-11-20T00:54:16;3.10;;;2.70;;
2147;SDS011;1080;48.724;9.104;2022-11-20T00:56:43;3.30;;;2.50;;
2147;SDS011;1080;48.724;9.104;2022-11-20T00:59:10;4.47;;;3.00;;
2147;SDS011;1080;48.724;9.104;2022-11-20T01:01:37;4.23;;;3.43;;
2147;SDS011;1080;48.724;9.104;2022-11-20T01:04:05;2.40;;;2.20;;
2147;SDS011;1080;48.724;9.104;2022-11-20T01:06:33;3.30;;;2.93;;
2147;SDS011;1080;48.724;9.104;2022-11-20T01:09:02;5.67;;;3.40;;
2147;SDS011;1080;48.724;9.104;2022-11-20T01:11:32;5.63;;;2.83;;
2147;SDS011;1080;48.724;9.104;2022-11-20T01:14:01;4.50;;;3.30;;
2147;SDS011;1080;48.724;9.104;2022-11-20T01:16:31;2.33;;;2.00;;
2147;SDS011;1080;48.724;9.104;2022-11-20T01:19:00;4.87;;;3.07;;
2147;SDS011;1080;48.724;9.104;2022-11-20T01:21:29;4.33;;;2.90;;
2147;SDS011;1080;48.724;9.104;2022-11-20T01:23:57;3.20;;;2.20;;
2147;SDS011;1080;48.724;9.104;2022-11-20T01:26:24;2.73;;;2.17;;
2147;SDS011;1080;48.724;9.104;2022-11-20T01:28:55;3.47;;;2.50;;
2147;SDS011;1080;48.724;9.104;2022-11-20T01:31:23;3.90;;;2.80;;
2147;SDS011;1080;48.724;9.104;2022-11-20T01:33:53;3.17;;;2.40;;
2147;SDS011;1080;48.724;9.104;2022-11-20T01:36:21;4.23;;;2.30;;
2147;SDS011;1080;48.724;9.104;2022-11-20T01:38:50;5.17;;;2.87;;
2147;SDS011;1080;48.724;9.104;2022-11-20T01:41:18;3.80;;;2.90;;
2147;SDS011;1080;48.724;9.104;2022-11-20T01:44:00;5.47;;;3.20;;
2147;SDS011;1080;48.724;9.104;2022-11-20T01:46:28;6.00;;;3.23;;
2147;SDS011;1080;48.724;9.104;2022-11-20T01:48:56;2.60;;;1.47;;
2147;SDS011;1080;48.724;9.104;2022-11-20T01:51:28;5.70;;;2.60;;
2147;SDS011;1080;48.724;9.104;2022-11-20T01:53:59;3.60;;;3.07;;
2147;SDS011;1080;48.724;9.104;2022-11-20T01:56:29;7.00;;;4.07;;
2147;SDS011;1080;48.724;9.104;2022-11-20T01:59:02;8.20;;;4.17;;
2147;SDS011;1080;48.724;9.104;2022-11-20T02:01:31;7.93;;;4.57;;
2147;SDS011;1080;48.724;9.104;2022-11-20T02:03:58;8.37;;;3.83;;
2147;SDS011;1080;48.724;9.104;2022-11-20T02:06:27;7.23;;;3.80;;
2147;SDS011;1080;48.724;9.104;2022-11-20T02:08:57;4.30;;;2.50;;
2147;SDS011;1080;48.724;9.104;2022-11-20T02:11:24;7.63;;;3.73;;
2147;SDS011;1080;48.724;9.104;2022-11-20T02:13:51;6.20;;;2.00;;
2147;SDS011;1080;48.724;9.104;2022-11-20T02:16:21;6.70;;;3.07;;
2147;SDS011;1080;48.724;9.104;2022-11-20T02:18:51;1.83;;;1.60;;
2147;SDS011;1080;48.724;9.104;2022-11-20T02:21:30;5.20;;;3.17;;
2147;SDS011;1080;48.724;9.104;2022-11-20T02:24:04;6.13;;;2.37;;
2147;SDS011;1080;48.724;9.104;2022-11-20T02:26:39;2.70;;;2.03;;
2147;SDS011;1080;48.724;9.104;2022-11-20T02:29:11;3.10;;;2.30;;
2147;SDS011;1080;48.724;9.104;2022-11-20T02:31:39;3.70;;;2.90;;
2147;SDS011;1080;48.724;9.104;2022-11-20T02:34:08;3.00;;;2.43;;
2147;SDS011;1080;48.724;9.104;2022-11-20T02:36:35;3.73;;;2.80;;
2147;SDS011;1080;48.724;9.104;2022-11-20T02:39:06;3.23;;;2.33;;
2147;SDS011;1080;48.724;9.104;2022-11-20T02:41:36;11.70;;;3.80;;
2147;SDS011;1080;48.724;9.104;2022-11-20T02:44:04;9.70;;;4.53;;
2147;SDS011;1080;48.724;9.104;2022-11-20T02:46:31;5.93;;;4.33;;
2147;SDS011;1080;48.724;9.104;2022-11-20T02:48:58;16.87;;;6.53;;
2147;SDS011;1080;48.724;9.104;2022-11-20T02:51:26;8.70;;;3.60;;
2147;SDS011;1080;48.724;9.104;2022-11-20T02:53:53;4.53;;;3.07;;
2147;SDS011;1080;48.724;9.104;2022-11-20T02:56:21;14.60;;;7.00;;
2147;SDS011;1080;48.724;9.104;2022-11-20T02:58:48;5.70;;;3.80;;
2147;SDS011;1080;48.724;9.104;2022-11-20T03:01:15;3.83;;;2.40;;
2147;SDS011;1080;48.724;9.104;2022-11-20T03:03:42;5.23;;;3.17;;
2147;SDS011;1080;48.724;9.104;2022-11-20T03:06:09;9.60;;;5.00;;
2147;SDS011;1080;48.724;9.104;2022-11-20T03:08:37;7.37;;;3.93;;
2147;SDS011;1080;48.724;9.104;2022-11-20T03:11:04;3.57;;;3.20;;
2147;SDS011;1080;48.724;9.104;2022-11-20T03:13:34;4.40;;;2.87;;
2147;SDS011;1080;48.724;9.104;2022-11-20T03:16:05;5.50;;;2.77;;
2147;SDS011;1080;48.724;9.104;2022-11-20T03:18:32;2.03;;;1.83;;
2147;SDS011;1080;48.724;9.104;2022-11-20T03:21:00;3.80;;;3.40;;
2147;SDS011;1080;48.724;9.104;2022-11-20T03:23:28;4.43;;;3.43;;
2147;SDS011;1080;48.724;9.104;2022-11-20T03:25:56;5.93;;;3.30;;
2147;SDS011;1080;48.724;9.104;2022-11-20T03:28:23;4.57;;;3.13;;
2147;SDS011;1080;48.724;9.104;2022-11-20T03:30:52;6.80;;;4.40;;
2147;SDS011;1080;48.724;9.104;2022-11-20T03:33:19;7.10;;;4.43;;
2147;SDS011;1080;48.724;9.104;2022-11-20T03:35:46;8.67;;;4.70;;
2147;SDS011;1080;48.724;9.104;2022-11-20T03:38:13;3.20;;;2.63;;
2147;SDS011;1080;48.724;9.104;2022-11-20T03:40:40;2.30;;;1.73;;
2147;SDS011;1080;48.724;9.104;2022-11-20T03:43:09;7.80;;;4.00;;
2147;SDS011;1080;48.724;9.104;2022-11-20T03:45:35;11.70;;;4.43;;
2147;SDS011;1080;48.724;9.104;2022-11-20T03:48:04;9.17;;;4.30;;
2147;SDS011;1080;48.724;9.104;2022-11-20T03:50:31;2.93;;;2.43;;
2147;SDS011;1080;48.724;9.104;2022-11-20T03:52:58;10.03;;;3.27;;
2147;SDS011;1080;48.724;9.104;2022-11-20T03:55:25;4.00;;;3.10;;
2147;SDS011;1080;48.724;9.104;2022-11-20T03:57:53;3.43;;;2.93;;
2147;SDS011;1080;48.724;9.104;2022-11-20T04:00:20;3.83;;;1.80;;
2147;SDS011;1080;48.724;9.104;2022-11-20T04:02:47;3.40;;;2.70;;
2147;SDS011;1080;48.724;9.104;2022-11-20T04:05:15;9.43;;;1.73;;
2147;SDS011;1080;48.724;9.104;2022-11-20T04:07:42;4.27;;;3.43;;
2147;SDS011;1080;48.724;9.104;2022-11-20T04:10:09;4.43;;;2.93;;
2147;SDS011;1080;48.724;9.104;2022-11-20T04:12:36;3.50;;;2.90;;
2147;SDS011;1080;48.724;9.104;2022-11-20T04:15:04;4.50;;;3.60;;
2147;SDS011;1080;48.724;9.104;2022-11-20T04:17:31;4.20;;;2.30;;
2147;SDS011;1080;48.724;9.104;2022-11-20T04:19:58;7.83;;;4.10;;
2147;SDS011;1080;48.724;9.104;2022-11-20T04:22:27;7.23;;;3.67;;
2147;SDS011;1080;48.724;9.104;2022-11-20T04:24:55;5.10;;;3.43;;
2147;SDS011;1080;48.724;9.104;2022-11-20T04:27:22;3.73;;;2.20;;
2147;SDS011;1080;48.724;9.104;2022-11-20T04:29:49;4.13;;;3.10;;
2147;SDS011;1080;48.724;9.104;2022-11-20T04:32:16;5.37;;;3.10;;
2147;SDS011;1080;48.724;9.104;2022-11-20T04:34:43;3.63;;;2.40;;
2147;SDS011;1080;48.724;9.104;2022-11-20T04:37:10;3.43;;;3.03;;
2147;SDS011;1080;48.724;9.104;2022-11-20T04:39:39;6.33;;;2.90;;
2147;SDS011;1080;48.724;9.104;2022-11-20T04:42:07;4.70;;;2.87;;
2147;SDS011;1080;48.724;9.104;2022-11-20T04:44:52;3.40;;;3.10;;
2147;SDS011;1080;48.724;9.104;2022-11-20T04:47:20;8.00;;;3.20;;
2147;SDS011;1080;48.724;9.104;2022-11-20T04:49:47;4.13;;;3.23;;
2147;SDS011;1080;48.724;9.104;2022-11-20T04:52:14;6.73;;;2.93;;
2147;SDS011;1080;48.724;9.104;2022-11-20T04:54:43;3.93;;;2.80;;
2147;SDS011;1080;48.724;9.104;2022-11-20T04:57:10;5.10;;;3.27;;
2147;SDS011;1080;48.724;9.104;2022-11-20T04:59:37;4.30;;;2.90;;
2147;SDS011;1080;48.724;9.104;2022-11-20T05:02:04;2.70;;;2.40;;
2147;SDS011;1080;48.724;9.104;2022-11-20T05:04:31;2.87;;;2.17;;
2147;SDS011;1080;48.724;9.104;2022-11-20T05:06:58;3.20;;;2.90;;
2147;SDS011;1080;48.724;9.104;2022-11-20T05:09:26;3.53;;;2.70;;
2147;SDS011;1080;48.724;9.104;2022-11-20T05:11:54;4.50;;;3.40;;
2147;SDS011;1080;48.724;9.104;2022-11-20T05:14:22;5.80;;;2.20;;
2147;SDS011;1080;48.724;9.104;2022-11-20T05:16:49;6.40;;;2.80;;
2147;SDS011;1080;48.724;9.104;2022-11-20T05:19:16;3.50;;;2.43;;
2147;SDS011;1080;48.724;9.104;2022-11-20T05:21:43;2.93;;;2.00;;
2147;SDS011;1080;48.724;9.104;2022-11-20T05:24:10;11.73;;;2.70;;
2147;SDS011;1080;48.724;9.104;2022-11-20T05:26:38;6.30;;;2.70;;
2147;SDS011;1080;48.724;9.104;2022-11-20T05:29:06;4.20;;;3.07;;
2147;SDS011;1080;48.724;9.104;2022-11-20T05:31:33;6.40;;;3.53;;
2147;SDS011;1080;48.724;9.104;2022-11-20T05:34:01;3.23;;;2.67;;
2147;SDS011;1080;48.724;9.104;2022-11-20T05:36:28;3.77;;;2.73;;
2147;SDS011;1080;48.724;9.104;2022-11-20T05:38:56;3.13;;;2.70;;
2147;SDS011;1080;48.724;9.104;2022-11-20T05:41:23;4.47;;;2.90;;
2147;SDS011;1080;48.724;9.104;2022-11-20T05:43:51;3.53;;;2.30;;
2147;SDS011;1080;48.724;9.104;2022-11-20T05:46:19;3.30;;;2.37;;
2147;SDS011;1080;48.724;9.104;2022-11-20T05:48:47;2.20;;;1.93;;
2147;SDS011;1080;48.724;9.104;2022-11-20T05:51:16;3.30;;;2.47;;
2147;SDS011;1080;48.724;9.104;2022-11-20T05:53:44;2.60;;;2.20;;
2147;SDS011;1080;48.724;9.104;2022-11-20T05:56:11;2.97;;;2.30;;
2147;SDS011;1080;48.724;9.104;2022-11-20T05:58:40;4.27;;;2.40;;
2147;SDS011;1080;48.724;9.104;2022-11-20T06:01:08;2.93;;;2.63;;
2147;SDS011;1080;48.724;9.104;2022-11-20T06:03:38;3.27;;;2.97;;
2147;SDS011;1080;48.724;9.104;2022-11-20T06:06:06;1.43;;;1.17;;
2147;SDS011;1080;48.724;9.104;2022-11-20T06:08:34;3.63;;;2.60;;
2147;SDS011;1080;48.724;9.104;2022-11-20T06:11:04;2.50;;;2.30;;
2147;SDS011;1080;48.724;9.104;2022-11-20T06:13:32;2.80;;;2.50;;
2147;SDS011;1080;48.724;9.104;2022-11-20T06:15:59;2.70;;;2.40;;
2147;SDS011;1080;48.724;9.104;2022-11-20T06:18:27;3.30;;;2.10;;
2147;SDS011;1080;48.724;9.104;2022-11-20T06:21:03;2.73;;;2.50;;
2147;SDS011;1080;48.724;9.104;2022-11-20T06:23:31;2.77;;;2.27;;
2147;SDS011;1080;48.724;9.104;2022-11-20T06:26:01;4.90;;;2.53;;
2147;SDS011;1080;48.724;9.104;2022-11-20T06:28:28;3.50;;;2.50;;
2147;SDS011;1080;48.724;9.104;2022-11-20T06:30:55;6.73;;;2.20;;
2147;SDS011;1080;48.724;9.104;2022-11-20T06:33:22;3.20;;;2.43;;
2147;SDS011;1080;48.724;9.104;2022-11-20T06:35:50;3.47;;;2.77;;
2147;SDS011;1080;48.724;9.104;2022-11-20T06:38:19;4.37;;;2.50;;
2147;SDS011;1080;48.724;9.104;2022-11-20T06:40:46;4.17;;;3.40;;
2147;SDS011;1080;48.724;9.104;2022-11-20T06:43:13;2.30;;;2.03;;
2147;SDS011;1080;48.724;9.104;2022-11-20T06:45:40;1.67;;;1.57;;
2147;SDS011;1080;48.724;9.104;2022-11-20T06:48:07;3.63;;;2.77;;
2147;SDS011;1080;48.724;9.104;2022-11-20T06:50:35;3.67;;;2.07;;
2147;SDS011;1080;48.724;9.104;2022-11-20T06:53:03;2.53;;;2.33;;
2147;SDS011;1080;48.724;9.104;2022-11-20T06:55:32;3.70;;;2.17;;
2147;SDS011;1080;48.724;9.104;2022-11-20T06:57:58;3.90;;;2.43;;
2147;SDS011;1080;48.724;9.104;2022-11-20T07:00:25;3.67;;;2.47;;
2147;SDS011;1080;48.724;9.104;2022-11-20T07:02:52;0.63;;;0.63;;
2147;SDS011;1080;48.724;9.104;2022-11-20T07:05:20;1.27;;;1.17;;
2147;SDS011;1080;48.724;9.104;2022-11-20T07:07:47;1.50;;;1.40;;
2147;SDS011;1080;48.724;9.104;2022-11-20T07:10:14;2.70;;;2.20;;
2147;SDS011;1080;48.724;9.104;2022-11-20T07:12:48;2.30;;;2.10;;
2147;SDS011;1080;48.724;9.104;2022-11-20T07:15:15;3.57;;;2.43;;
2147;SDS011;1080;48.724;9.104;2022-11-20T07:17:42;2.70;;;2.43;;
2147;SDS011;1080;48.724;9.104;2022-11-20T07:20:10;1.13;;;1.03;;
2147;SDS011;1080;48.724;9.104;2022-11-20T07:22:37;1.73;;;1.43;;
2147;SDS011;1080;48.724;9.104;2022-11-20T07:25:05;2.83;;;1.13;;
2147;SDS011;1080;48.724;9.104;2022-11-20T07:27:32;2.30;;;1.90;;
2147;SDS011;1080;48.724;9.104;2022-11-20T07:30:01;2.47;;;1.90;;
2147;SDS011;1080;48.724;9.104;2022-11-20T07:32:28;4.23;;;2.43;;
2147;SDS011;1080;48.724;9.104;2022-11-20T07:34:55;1.97;;;1.60;;
2147;SDS011;1080;48.724;9.104;2022-11-20T07:37:22;2.73;;;1.60;;
2147;SDS011;1080;48.724;9.104;2022-11-20T07:39:49;1.50;;;1.40;;
2147;SDS011;1080;48.724;9.104;2022-11-20T07:42:16;2.33;;;2.00;;
2147;SDS011;1080;48.724;9.104;2022-11-20T07:44:43;2.60;;;1.80;;
2147;SDS011;1080;48.724;9.104;2022-11-20T07:47:12;1.93;;;1.73;;
2147;SDS011;1080;48.724;9.104;2022-11-20T07:49:39;2.13;;;1.50;;
2147;SDS011;1080;48.724;9.104;2022-11-20T07:52:06;0.90;;;0.70;;
2147;SDS011;1080;48.724;9.104;2022-11-20T07:54:33;4.83;;;1.10;;
2147;SDS011;1080;48.724;9.104;2022-11-20T07:57:00;2.20;;;1.20;;
2147;SDS011;1080;48.724;9.104;2022-11-20T07:59:27;2.20;;;2.00;;
2147;SDS011;1080;48.724;9.104;2022-11-20T08:01:54;3.83;;;1.50;;
2147;SDS011;1080;48.724;9.104;2022-11-20T08:04:23;1.97;;;1.50;;
2147;SDS011;1080;48.724;9.104;2022-11-20T08:06:51;1.33;;;1.17;;
2147;SDS011;1080;48.724;9.104;2022-11-20T08:09:18;1.33;;;1.20;;
2147;SDS011;1080;48.724;9.104;2022-11-20T08:11:45;1.97;;;1.77;;
2147;SDS011;1080;48.724;9.104;2022-11-20T08:14:30;1.33;;;1.23;;
2147;SDS011;1080;48.724;9.104;2022-11-20T08:16:57;1.80;;;1.57;;
2147;SDS011;1080;48.724;9.104;2022-11-20T08:19:26;1.57;;;1.43;;
2147;SDS011;1080;48.724;9.104;2022-11-20T08:21:53;1.70;;;1.53;;
2147;SDS011;1080;48.724;9.104;2022-11-20T08:24:20;1.97;;;1.70;;
2147;SDS011;1080;48.724;9.104;2022-11-20T08:26:47;2.93;;;1.73;;
2147;SDS011;1080;48.724;9.104;2022-11-20T08:29:14;1.27;;;1.00;;
2147;SDS011;1080;48.724;9.104;2022-11-20T08:31:41;4.40;;;1.83;;
2147;SDS011;1080;48.724;9.104;2022-11-20T08:34:08;2.23;;;1.60;;
2147;SDS011;1080;48.724;9.104;2022-11-20T08:36:37;1.30;;;1.00;;
2147;SDS011;1080;48.724;9.104;2022-11-20T08:39:05;1.53;;;1.43;;
2147;SDS011;1080;48.724;9.104;2022-11-20T08:41:32;1.90;;;1.37;;
2147;SDS011;1080;48.724;9.104;2022-11-20T08:44:02;1.73;;;1.40;;
2147;SDS011;1080;48.724;9.104;2022-11-20T08:46:32;1.80;;;1.23;;
2147;SDS011;1080;48.724;9.104;2022-11-20T08:49:01;3.40;;;1.53;;
2147;SDS011;1080;48.724;9.104;2022-11-20T08:51:28;2.40;;;2.20;;
2147;SDS011;1080;48.724;9.104;2022-11-20T08:53:56;2.03;;;1.80;;
2147;SDS011;1080;48.724;9.104;2022-11-20T08:56:23;3.00;;;1.50;;
2147;SDS011;1080;48.724;9.104;2022-11-20T08:58:51;1.30;;;1.20;;
2147;SDS011;1080;48.724;9.104;2022-11-20T09:01:19;4.10;;;1.67;;
2147;SDS011;1080;48.724;9.104;2022-11-20T09:03:48;1.20;;;0.90;;
2147;SDS011;1080;48.724;9.104;2022-11-20T09:06:15;6.70;;;1.30;;
2147;SDS011;1080;48.724;9.104;2022-11-20T09:08:42;2.30;;;1.30;;
2147;SDS011;1080;48.724;9.104;2022-11-20T09:11:11;1.40;;;1.10;;
2147;SDS011;1080;48.724;9.104;2022-11-20T09:13:38;2.40;;;2.20;;
2147;SDS011;1080;48.724;9.104;2022-11-20T09:16:05;0.70;;;0.53;;
2147;SDS011;1080;48.724;9.104;2022-11-20T09:18:34;0.90;;;0.90;;
2147;SDS011;1080;48.724;9.104;2022-11-20T09:21:02;1.37;;;1.17;;
2147;SDS011;1080;48.724;9.104;2022-11-20T09:23:31;3.30;;;1.03;;
2147;SDS011;1080;48.724;9.104;2022-11-20T09:26:01;1.33;;;0.90;;
2147;SDS011;1080;48.724;9.104;2022-11-20T09:28:30;2.30;;;1.30;;
2147;SDS011;1080;48.724;9.104;2022-11-20T09:30:57;2.20;;;2.00;;
2147;SDS011;1080;48.724;9.104;2022-11-20T09:33:25;1.20;;;1.10;;
2147;SDS011;1080;48.724;9.104;2022-11-20T09:35:52;1.13;;;0.93;;
2147;SDS011;1080;48.724;9.104;2022-11-20T09:38:19;1.40;;;1.30;;
2147;SDS011;1080;48.724;9.104;2022-11-20T09:40:47;1.37;;;1.27;;
2147;SDS011;1080;48.724;9.104;2022-11-20T09:43:19;1.20;;;0.93;;
2147;SDS011;1080;48.724;9.104;2022-11-20T09:46:00;1.20;;;1.10;;
2147;SDS011;1080;48.724;9.104;2022-11-20T09:48:41;1.90;;;0.70;;
2147;SDS011;1080;48.724;9.104;2022-11-20T09:51:16;0.70;;;0.63;;
2147;SDS011;1080;48.724;9.104;2022-11-20T09:53:57;1.13;;;1.00;;
2147;SDS011;1080;48.724;9.104;2022-11-20T09:56:33;0.97;;;0.90;;
2147;SDS011;1080;48.724;9.104;2022-11-20T09:59:04;1.03;;;0.70;;
2147;SDS011;1080;48.724;9.104;2022-11-20T10:01:35;0.97;;;0.80;;
2147;SDS011;1080;48.724;9.104;2022-11-20T10:04:06;0.60;;;0.50;;
2147;SDS011;1080;48.724;9.104;2022-11-20T10:06:40;1.93;;;0.83;;
2147;SDS011;1080;48.724;9.104;2022-11-20T10:09:14;1.37;;;0.80;;
2147;SDS011;1080;48.724;9.104;2022-11-20T10:11:52;1.00;;;0.90;;
2147;SDS011;1080;48.724;9.104;2022-11-20T10:14:30;1.13;;;0.93;;
2147;SDS011;1080;48.724;9.104;2022-11-20T10:17:11;0.97;;;0.73;;
2147;SDS011;1080;48.724;9.104;2022-11-20T10:19:52;1.23;;;0.57;;
2147;SDS011;1080;48.724;9.104;2022-11-20T10:22:31;0.60;;;0.50;;
2147;SDS011;1080;48.724;9.104;2022-11-20T10:25:10;0.70;;;0.70;;
2147;SDS011;1080;48.724;9.104;2022-11-20T10:27:59;0.90;;;0.70;;
2147;SDS011;1080;48.724;9.104;2022-11-20T10:30:40;0.63;;;0.60;;
2147;SDS011;1080;48.724;9.104;2022-11-20T10:33:13;0.70;;;0.67;;
2147;SDS011;1080;48.724;9.104;2022-11-20T10:35:43;1.13;;;0.80;;
2147;SDS011;1080;48.724;9.104;2022-11-20T10:38:13;1.03;;;0.70;;
2147;SDS011;1080;48.724;9.104;2022-11-20T10:40:44;1.73;;;0.53;;
2147;SDS011;1080;48.724;9.104;2022-11-20T10:43:14;1.87;;;0.93;;
2147;SDS011;1080;48.724;9.104;2022-11-20T10:45:49;0.80;;;0.70;;
2147;SDS011;1080;48.724;9.104;2022-11-20T10:48:24;1.27;;;1.00;;
2147;SDS011;1080;48.724;9.104;2022-11-20T10:50:55;1.27;;;0.67;;
2147;SDS011;1080;48.724;9.104;2022-11-20T10:53:44;2.10;;;1.60;;
2147;SDS011;1080;48.724;9.104;2022-11-20T10:56:19;2.30;;;1.40;;
2147;SDS011;1080;48.724;9.104;2022-11-20T10:58:52;1.00;;;0.90;;
2147;SDS011;1080;48.724;9.104;2022-11-20T11:01:38;2.30;;;1.87;;
2147;SDS011;1080;48.724;9.104;2022-11-20T11:04:20;1.20;;;1.10;;
2147;SDS011;1080;48.724;9.104;2022-11-20T11:06:57;2.00;;;1.00;;
2147;SDS011;1080;48.724;9.104;2022-11-20T11:09:32;2.63;;;1.63;;
2147;SDS011;1080;48.724;9.104;2022-11-20T11:12:06;1.20;;;1.10;;
2147;SDS011;1080;48.724;9.104;2022-11-20T11:14:41;1.67;;;0.80;;
2147;SDS011;1080;48.724;9.104;2022-11-20T11:17:17;1.13;;;1.03;;
2147;SDS011;1080;48.724;9.104;2022-11-20T11:19:57;1.50;;;0.90;;
2147;SDS011;1080;48.724;9.104;2022-11-20T11:22:29;1.20;;;1.00;;
2147;SDS011;1080;48.724;9.104;2022-11-20T11:24:58;0.70;;;0.50;;
2147;SDS011;1080;48.724;9.104;2022-11-20T11:27:25;1.57;;;1.27;;
2147;SDS011;1080;48.724;9.104;2022-11-20T11:32:39;1.23;;;1.03;;
2147;SDS011;1080;48.724;9.104;2022-11-20T11:35:18;2.00;;;1.60;;
2147;SDS011;1080;48.724;9.104;2022-11-20T11:37:47;1.80;;;1.37;;
2147;SDS011;1080;48.724;9.104;2022-11-20T11:40:16;2.33;;;1.47;;
2147;SDS011;1080;48.724;9.104;2022-11-20T11:42:44;1.77;;;1.17;;
2147;SDS011;1080;48.724;9.104;2022-11-20T11:45:17;1.37;;;1.20;;
2147;SDS011;1080;48.724;9.104;2022-11-20T11:47:44;1.70;;;1.17;;
2147;SDS011;1080;48.724;9.104;2022-11-20T11:50:16;1.37;;;1.00;;
2147;SDS011;1080;48.724;9.104;2022-11-20T11:52:45;1.03;;;0.80;;
2147;SDS011;1080;48.724;9.104;2022-11-20T11:55:18;4.50;;;1.60;;
2147;SDS011;1080;48.724;9.104;2022-11-20T11:57:52;3.33;;;1.33;;
2147;SDS011;1080;48.724;9.104;2022-11-20T12:00:25;4.30;;;1.03;;
2147;SDS011;1080;48.724;9.104;2022-11-20T12:02:57;2.67;;;0.97;;
2147;SDS011;1080;48.724;9.104;2022-11-20T12:05:33;1.63;;;0.70;;
2147;SDS011;1080;48.724;9.104;2022-11-20T12:08:05;1.50;;;1.10;;
2147;SDS011;1080;48.724;9.104;2022-11-20T12:10:41;1.93;;;0.80;;
2147;SDS011;1080;48.724;9.104;2022-11-20T12:13:15;0.70;;;0.53;;
2147;SDS011;1080;48.724;9.104;2022-11-20T12:15:49;1.33;;;1.00;;
2147;SDS011;1080;48.724;9.104;2022-11-20T12:18:18;1.10;;;0.70;;
2147;SDS011;1080;48.724;9.104;2022-11-20T12:20:51;5.37;;;1.20;;
2147;SDS011;1080;48.724;9.104;2022-11-20T12:23:27;1.90;;;0.70;;
2147;SDS011;1080;48.724;9.104;2022-11-20T12:26:02;0.63;;;0.50;;
2147;SDS011;1080;48.724;9.104;2022-11-20T12:28:39;0.70;;;0.67;;
2147;SDS011;1080;48.724;9.104;2022-11-20T12:31:22;1.60;;;0.50;;
2147;SDS011;1080;48.724;9.104;2022-11-20T12:36:58;0.90;;;0.70;;
2147;SDS011;1080;48.724;9.104;2022-11-20T12:39:33;2.40;;;1.07;;
2147;SDS011;1080;48.724;9.104;2022-11-20T12:51:19;1.50;;;1.10;;
2147;SDS011;1080;48.724;9.104;2022-11-20T12:54:00;0.70;;;0.63;;
2147;SDS011;1080;48.724;9.104;2022-11-20T12:56:38;0.90;;;0.47;;
2147;SDS011;1080;48.724;9.104;2022-11-20T12:59:16;0.70;;;0.60;;
2147;SDS011;1080;48.724;9.104;2022-11-20T13:01:55;1.97;;;0.80;;
2147;SDS011;1080;48.724;9.104;2022-11-20T13:07:29;3.43;;;0.67;;
2147;SDS011;1080;48.724;9.104;2022-11-20T13:09:58;0.80;;;0.60;;
2147;SDS011;1080;48.724;9.104;2022-11-20T13:12:28;1.67;;;0.83;;
2147;SDS011;1080;48.724;9.104;2022-11-20T13:15:02;0.83;;;0.47;;
2147;SDS011;1080;48.724;9.104;2022-11-20T13:17:37;0.80;;;0.60;;
2147;SDS011;1080;48.724;9.104;2022-11-20T13:20:12;0.80;;;0.67;;
2147;SDS011;1080;48.724;9.104;2022-11-20T13:22:42;0.60;;;0.60;;
2147;SDS011;1080;48.724;9.104;2022-11-20T13:25:22;1.03;;;0.60;;
2147;SDS011;1080;48.724;9.104;2022-11-20T13:27:50;1.33;;;0.87;;
2147;SDS011;1080;48.724;9.104;2022-11-20T13:30:18;0.90;;;0.70;;
2147;SDS011;1080;48.724;9.104;2022-11-20T13:32:49;1.07;;;0.50;;
2147;SDS011;1080;48.724;9.104;2022-11-20T13:35:28;0.80;;;0.70;;
2147;SDS011;1080;48.724;9.104;2022-11-20T13:37:59;1.20;;;0.70;;
2147;SDS011;1080;48.724;9.104;2022-11-20T13:40:29;0.93;;;0.70;;
2147;SDS011;1080;48.724;9.104;2022-11-20T13:43:01;1.53;;;0.43;;
2147;SDS011;1080;48.724;9.104;2022-11-20T13:45:33;0.60;;;0.43;;
2147;SDS011;1080;48.724;9.104;2022-11-20T13:48:01;2.20;;;0.87;;
2147;SDS011;1080;48.724;9.104;2022-11-20T13:50:38;1.73;;;0.70;;
2147;SDS011;1080;48.724;9.104;2022-11-20T13:53:14;1.17;;;0.57;;
2147;SDS011;1080;48.724;9.104;2022-11-20T13:55:57;0.77;;;0.53;;
2147;SDS011;1080;48.724;9.104;2022-11-20T13:58:33;0.80;;;0.60;;
2147;SDS011;1080;48.724;9.104;2022-11-20T14:01:10;0.60;;;0.40;;
2147;SDS011;1080;48.724;9.104;2022-11-20T14:03:42;1.43;;;0.77;;
2147;SDS011;1080;48.724;9.104;2022-11-20T14:06:11;1.10;;;0.70;;
2147;SDS011;1080;48.724;9.104;2022-11-20T14:08:44;2.10;;;1.13;;
2147;SDS011;1080;48.724;9.104;2022-11-20T14:11:15;1.03;;;0.90;;
2147;SDS011;1080;48.724;9.104;2022-11-20T14:13:51;2.60;;;0.77;;
2147;SDS011;1080;48.724;9.104;2022-11-20T14:16:23;1.43;;;0.47;;
2147;SDS011;1080;48.724;9.104;2022-11-20T14:18:50;0.83;;;0.60;;
2147;SDS011;1080;48.724;9.104;2022-11-20T14:21:24;1.13;;;0.83;;
2147;SDS011;1080;48.724;9.104;2022-11-20T14:23:52;1.33;;;1.03;;
2147;SDS011;1080;48.724;9.104;2022-11-20T14:26:21;0.83;;;0.80;;
2147;SDS011;1080;48.724;9.104;2022-11-20T14:28:49;0.90;;;0.60;;
2147;SDS011;1080;48.724;9.104;2022-11-20T14:31:19;35.23;;;10.13;;
2147;SDS011;1080;48.724;9.104;2022-11-20T14:33:50;3.40;;;1.40;;
2147;SDS011;1080;48.724;9.104;2022-11-20T14:36:18;1.70;;;1.30;;
2147;SDS011;1080;48.724;9.104;2022-11-20T14:38:47;1.50;;;1.10;;
2147;SDS011;1080;48.724;9.104;2022-11-20T14:41:16;1.03;;;0.73;;
2147;SDS011;1080;48.724;9.104;2022-11-20T14:43:46;1.00;;;0.80;;
2147;SDS011;1080;48.724;9.104;2022-11-20T14:46:17;6.33;;;1.40;;
2147;SDS011;1080;48.724;9.104;2022-11-20T14:48:45;1.53;;;1.43;;
2147;SDS011;1080;48.724;9.104;2022-11-20T14:51:23;2.43;;;1.13;;
2147;SDS011;1080;48.724;9.104;2022-11-20T14:53:54;1.40;;;0.80;;
2147;SDS011;1080;48.724;9.104;2022-11-20T14:56:21;1.33;;;1.23;;
2147;SDS011;1080;48.724;9.104;2022-11-20T14:58:57;1.00;;;0.90;;
2147;SDS011;1080;48.724;9.104;2022-11-20T15:01:25;7.63;;;1.60;;
2147;SDS011;1080;48.724;9.104;2022-11-20T15:03:59;1.23;;;0.93;;
2147;SDS011;1080;48.724;9.104;2022-11-20T15:06:27;1.80;;;0.77;;
2147;SDS011;1080;48.724;9.104;2022-11-20T15:08:55;1.30;;;1.10;;
2147;SDS011;1080;48.724;9.104;2022-11-20T15:11:25;22.17;;;1.23;;
2147;SDS011;1080;48.724;9.104;2022-11-20T15:13:57;3.90;;;3.27;;
2147;SDS011;1080;48.724;9.104;2022-11-20T15:16:28;1.40;;;0.80;;
2147;SDS011;1080;48.724;9.104;2022-11-20T15:18:55;2.87;;;1.23;;
2147;SDS011;1080;48.724;9.104;2022-11-20T15:21:23;3.43;;;1.40;;
2147;SDS011;1080;48.724;9.104;2022-11-20T15:23:50;2.07;;;1.50;;
2147;SDS011;1080;48.724;9.104;2022-11-20T15:26:20;1.43;;;0.80;;
2147;SDS011;1080;48.724;9.104;2022-11-20T15:28:49;2.67;;;1.73;;
2147;SDS011;1080;48.724;9.104;2022-11-20T15:31:19;1.33;;;0.80;;
2147;SDS011;1080;48.724;9.104;2022-11-20T15:33:48;2.40;;;1.10;;
2147;SDS011;1080;48.724;9.104;2022-11-20T15:36:15;1.00;;;0.90;;
2147;SDS011;1080;48.724;9.104;2022-11-20T15:38:42;5.33;;;1.53;;
2147;SDS011;1080;48.724;9.104;2022-11-20T15:41:09;1.40;;;1.20;;
2147;SDS011;1080;48.724;9.104;2022-11-20T15:43:36;2.00;;;1.57;;
2147;SDS011;1080;48.724;9.104;2022-11-20T15:46:04;1.90;;;1.80;;
2147;SDS011;1080;48.724;9.104;2022-11-20T15:48:35;3.93;;;2.10;;
2147;SDS011;1080;48.724;9.104;2022-11-20T15:51:06;3.10;;;1.40;;